sensor_id;sensor_type;location;lat;lon;timestamp;temperature;humidity
36458;DHT22;22480;50.546;12.292;2023-04-24T00:02:11;9.60;99.90
36458;DHT22;22480;50.546;12.292;2023-04-24T00:04:38;9.60;99.90
36458;DHT22;22480;50.546;12.292;2023-04-24T00:07:07;9.60;99.90
36458;DHT22;22480;50.546;12.292;2023-04-24T00:09:33;9.60;99.90
36458;DHT22;22480;50.546;12.292;2023-04-24T00:11:59;9.50;99.90
36458;DHT22;22480;50.546;12.292;2023-04-24T00:14:25;9.50;99.90
36458;DHT22;22480;50.546;12.292;2023-04-24T00:16:50;9.50;99.90
36458;DHT22;22480;50.546;12.292;2023-04-24T00:19:17;9.60;99.90
36458;DHT22;22480;50.546;12.292;2023-04-24T00:21:42;9.50;99.90
36458;DHT22;22480;50.546;12.292;2023-04-24T00:24:08;9.50;99.90
36458;DHT22;22480;50.546;12.292;2023-04-24T00:26:34;9.50;99.90
36458;DHT22;22480;50.546;12.292;2023-04-24T00:29:00;9.50;99.90
36458;DHT22;22480;50.546;12.292;2023-04-24T00:31:26;9.50;99.90
36458;DHT22;22480;50.546;12.292;2023-04-24T00:33:52;9.50;99.90
36458;DHT22;22480;50.546;12.292;2023-04-24T00:36:18;9.50;99.90
36458;DHT22;22480;50.546;12.292;2023-04-24T00:38:46;9.50;99.90
36458;DHT22;22480;50.546;12.292;2023-04-24T00:41:11;9.50;99.90
36458;DHT22;22480;50.546;12.292;2023-04-24T00:43:38;9.50;99.90
36458;DHT22;22480;50.546;12.292;2023-04-24T00:46:04;9.50;99.90
36458;DHT22;22480;50.546;12.292;2023-04-24T00:48:30;9.60;99.90
36458;DHT22;22480;50.546;12.292;2023-04-24T00:50:57;9.60;99.90
36458;DHT22;22480;50.546;12.292;2023-04-24T00:53:24;9.60;99.90
36458;DHT22;22480;50.546;12.292;2023-04-24T00:55:50;9.60;99.90
36458;DHT22;22480;50.546;12.292;2023-04-24T00:58:16;9.60;99.90
36458;DHT22;22480;50.546;12.292;2023-04-24T01:00:42;9.60;99.90
36458;DHT22;22480;50.546;12.292;2023-04-24T01:03:09;9.60;99.90
36458;DHT22;22480;50.546;12.292;2023-04-24T01:05:36;9.60;99.90
36458;DHT22;22480;50.546;12.292;2023-04-24T01:08:02;9.60;99.90
36458;DHT22;22480;50.546;12.292;2023-04-24T01:10:29;9.60;99.90
36458;DHT22;22480;50.546;12.292;2023-04-24T01:12:58;9.60;99.90
36458;DHT22;22480;50.546;12.292;2023-04-24T01:15:23;9.50;99.90
36458;DHT22;22480;50.546;12.292;2023-04-24T01:17:49;9.60;99.90
36458;DHT22;22480;50.546;12.292;2023-04-24T01:20:15;9.60;99.90
36458;DHT22;22480;50.546;12.292;2023-04-24T01:22:42;9.50;99.90
36458;DHT22;22480;50.546;12.292;2023-04-24T01:25:08;9.50;99.90
36458;DHT22;22480;50.546;12.292;2023-04-24T01:27:34;9.50;99.90
36458;DHT22;22480;50.546;12.292;2023-04-24T01:30:00;9.50;99.90
36458;DHT22;22480;50.546;12.292;2023-04-24T01:32:29;9.40;99.90
36458;DHT22;22480;50.546;12.292;2023-04-24T01:34:55;9.40;99.90
36458;DHT22;22480;50.546;12.292;2023-04-24T01:37:21;9.40;99.90
36458;DHT22;22480;50.546;12.292;2023-04-24T01:39:46;9.30;99.90
36458;DHT22;22480;50.546;12.292;2023-04-24T01:42:13;9.30;99.90
36458;DHT22;22480;50.546;12.292;2023-04-24T01:44:38;9.30;99.90
36458;DHT22;22480;50.546;12.292;2023-04-24T01:47:05;9.30;99.90
36458;DHT22;22480;50.546;12.292;2023-04-24T01:49:31;9.30;99.90
36458;DHT22;22480;50.546;12.292;2023-04-24T01:51:58;9.20;99.90
36458;DHT22;22480;50.546;12.292;2023-04-24T01:54:23;9.20;99.90
36458;DHT22;22480;50.546;12.292;2023-04-24T01:56:49;9.20;99.90
36458;DHT22;22480;50.546;12.292;2023-04-24T01:59:17;9.20;99.90
36458;DHT22;22480;50.546;12.292;2023-04-24T02:01:43;9.20;99.90
36458;DHT22;22480;50.546;12.292;2023-04-24T02:04:09;9.20;99.90
36458;DHT22;22480;50.546;12.292;2023-04-24T02:06:35;9.20;99.90
36458;DHT22;22480;50.546;12.292;2023-04-24T02:09:01;9.20;99.90
36458;DHT22;22480;50.546;12.292;2023-04-24T02:11:27;9.20;99.90
36458;DHT22;22480;50.546;12.292;2023-04-24T02:13:53;9.30;99.90
36458;DHT22;22480;50.546;12.292;2023-04-24T02:16:19;9.20;99.90
36458;DHT22;22480;50.546;12.292;2023-04-24T02:18:45;9.20;99.90
36458;DHT22;22480;50.546;12.292;2023-04-24T02:21:11;9.20;99.90
36458;DHT22;22480;50.546;12.292;2023-04-24T02:23:36;9.10;99.90
36458;DHT22;22480;50.546;12.292;2023-04-24T02:26:02;9.10;99.90
36458;DHT22;22480;50.546;12.292;2023-04-24T02:28:28;9.00;99.90
36458;DHT22;22480;50.546;12.292;2023-04-24T02:30:53;9.00;99.90
36458;DHT22;22480;50.546;12.292;2023-04-24T02:33:21;8.90;99.90
36458;DHT22;22480;50.546;12.292;2023-04-24T02:35:47;8.90;99.90
36458;DHT22;22480;50.546;12.292;2023-04-24T02:38:13;8.90;99.90
36458;DHT22;22480;50.546;12.292;2023-04-24T02:40:38;8.90;99.90
36458;DHT22;22480;50.546;12.292;2023-04-24T02:43:04;8.90;99.90
36458;DHT22;22480;50.546;12.292;2023-04-24T02:45:30;8.90;99.90
36458;DHT22;22480;50.546;12.292;2023-04-24T02:47:56;8.90;99.90
36458;DHT22;22480;50.546;12.292;2023-04-24T02:50:22;8.90;99.90
36458;DHT22;22480;50.546;12.292;2023-04-24T02:52:47;8.90;99.90
36458;DHT22;22480;50.546;12.292;2023-04-24T02:55:13;8.80;99.90
36458;DHT22;22480;50.546;12.292;2023-04-24T02:57:39;8.90;99.90
36458;DHT22;22480;50.546;12.292;2023-04-24T03:00:06;8.80;99.90
36458;DHT22;22480;50.546;12.292;2023-04-24T03:02:32;8.80;99.90
36458;DHT22;22480;50.546;12.292;2023-04-24T03:04:59;8.70;99.90
36458;DHT22;22480;50.546;12.292;2023-04-24T03:07:25;8.80;99.90
36458;DHT22;22480;50.546;12.292;2023-04-24T03:09:50;8.80;99.90
36458;DHT22;22480;50.546;12.292;2023-04-24T03:12:16;8.80;99.90
36458;DHT22;22480;50.546;12.292;2023-04-24T03:14:43;8.70;99.90
36458;DHT22;22480;50.546;12.292;2023-04-24T03:17:09;8.70;99.90
36458;DHT22;22480;50.546;12.292;2023-04-24T03:19:35;8.70;99.90
36458;DHT22;22480;50.546;12.292;2023-04-24T03:22:08;8.70;99.90
36458;DHT22;22480;50.546;12.292;2023-04-24T03:24:35;8.60;99.90
36458;DHT22;22480;50.546;12.292;2023-04-24T03:27:01;8.60;99.90
36458;DHT22;22480;50.546;12.292;2023-04-24T03:29:50;8.60;99.90
36458;DHT22;22480;50.546;12.292;2023-04-24T03:32:23;8.50;99.90
36458;DHT22;22480;50.546;12.292;2023-04-24T03:34:49;8.60;99.90
36458;DHT22;22480;50.546;12.292;2023-04-24T03:37:16;8.50;99.90
36458;DHT22;22480;50.546;12.292;2023-04-24T03:39:47;8.50;99.90
36458;DHT22;22480;50.546;12.292;2023-04-24T03:42:15;8.60;99.90
36458;DHT22;22480;50.546;12.292;2023-04-24T03:44:49;8.60;99.90
36458;DHT22;22480;50.546;12.292;2023-04-24T03:47:16;8.60;99.90
36458;DHT22;22480;50.546;12.292;2023-04-24T03:49:42;8.60;99.90
36458;DHT22;22480;50.546;12.292;2023-04-24T03:52:09;8.60;99.90
36458;DHT22;22480;50.546;12.292;2023-04-24T03:54:35;8.50;99.90
36458;DHT22;22480;50.546;12.292;2023-04-24T03:57:01;8.50;99.90
36458;DHT22;22480;50.546;12.292;2023-04-24T03:59:28;8.50;99.90
36458;DHT22;22480;50.546;12.292;2023-04-24T04:02:06;8.50;99.90
36458;DHT22;22480;50.546;12.292;2023-04-24T04:04:32;8.50;99.90
36458;DHT22;22480;50.546;12.292;2023-04-24T04:06:59;8.60;99.90
36458;DHT22;22480;50.546;12.292;2023-04-24T04:09:29;8.60;99.90
36458;DHT22;22480;50.546;12.292;2023-04-24T04:11:55;8.60;99.90
36458;DHT22;22480;50.546;12.292;2023-04-24T04:14:21;8.50;99.90
36458;DHT22;22480;50.546;12.292;2023-04-24T04:16:47;8.50;99.90
36458;DHT22;22480;50.546;12.292;2023-04-24T04:19:14;8.60;99.90
36458;DHT22;22480;50.546;12.292;2023-04-24T04:21:39;8.60;99.90
36458;DHT22;22480;50.546;12.292;2023-04-24T04:24:12;8.60;99.90
36458;DHT22;22480;50.546;12.292;2023-04-24T04:26:43;8.60;99.90
36458;DHT22;22480;50.546;12.292;2023-04-24T04:29:13;8.60;99.90
36458;DHT22;22480;50.546;12.292;2023-04-24T04:31:42;8.60;99.90
36458;DHT22;22480;50.546;12.292;2023-04-24T04:34:11;8.70;99.90
36458;DHT22;22480;50.546;12.292;2023-04-24T04:36:39;8.70;99.90
36458;DHT22;22480;50.546;12.292;2023-04-24T04:39:25;8.70;99.90
36458;DHT22;22480;50.546;12.292;2023-04-24T04:42:03;8.70;99.90
36458;DHT22;22480;50.546;12.292;2023-04-24T04:44:38;8.70;99.90
36458;DHT22;22480;50.546;12.292;2023-04-24T04:47:05;8.70;99.90
36458;DHT22;22480;50.546;12.292;2023-04-24T04:49:34;8.80;99.90
36458;DHT22;22480;50.546;12.292;2023-04-24T04:52:00;8.80;99.90
36458;DHT22;22480;50.546;12.292;2023-04-24T04:54:27;8.90;99.90
36458;DHT22;22480;50.546;12.292;2023-04-24T04:56:54;8.90;99.90
36458;DHT22;22480;50.546;12.292;2023-04-24T04:59:20;9.00;99.90
36458;DHT22;22480;50.546;12.292;2023-04-24T05:01:49;9.00;99.90
36458;DHT22;22480;50.546;12.292;2023-04-24T05:04:16;9.00;99.90
36458;DHT22;22480;50.546;12.292;2023-04-24T05:06:43;9.10;99.90
36458;DHT22;22480;50.546;12.292;2023-04-24T05:09:09;9.20;99.90
36458;DHT22;22480;50.546;12.292;2023-04-24T05:11:51;9.20;99.90
36458;DHT22;22480;50.546;12.292;2023-04-24T05:14:17;9.30;99.90
36458;DHT22;22480;50.546;12.292;2023-04-24T05:16:44;9.30;99.90
36458;DHT22;22480;50.546;12.292;2023-04-24T05:19:12;9.30;99.90
36458;DHT22;22480;50.546;12.292;2023-04-24T05:21:40;9.40;99.90
36458;DHT22;22480;50.546;12.292;2023-04-24T05:24:07;9.50;99.90
36458;DHT22;22480;50.546;12.292;2023-04-24T05:27:05;9.60;99.90
36458;DHT22;22480;50.546;12.292;2023-04-24T05:29:35;9.60;99.90
36458;DHT22;22480;50.546;12.292;2023-04-24T05:32:03;9.60;99.90
36458;DHT22;22480;50.546;12.292;2023-04-24T05:34:30;9.70;99.90
36458;DHT22;22480;50.546;12.292;2023-04-24T05:36:56;9.70;99.90
36458;DHT22;22480;50.546;12.292;2023-04-24T05:39:22;9.70;99.90
36458;DHT22;22480;50.546;12.292;2023-04-24T05:41:48;9.80;99.90
36458;DHT22;22480;50.546;12.292;2023-04-24T05:44:13;9.80;99.90
36458;DHT22;22480;50.546;12.292;2023-04-24T05:46:39;9.90;99.90
36458;DHT22;22480;50.546;12.292;2023-04-24T05:49:05;9.90;99.90
36458;DHT22;22480;50.546;12.292;2023-04-24T05:51:32;10.00;99.90
36458;DHT22;22480;50.546;12.292;2023-04-24T05:53:58;10.00;99.90
36458;DHT22;22480;50.546;12.292;2023-04-24T05:56:25;10.00;99.90
36458;DHT22;22480;50.546;12.292;2023-04-24T05:58:51;9.90;99.90
36458;DHT22;22480;50.546;12.292;2023-04-24T06:01:17;10.00;99.90
36458;DHT22;22480;50.546;12.292;2023-04-24T06:03:48;10.00;99.90
36458;DHT22;22480;50.546;12.292;2023-04-24T06:06:14;10.10;99.90
36458;DHT22;22480;50.546;12.292;2023-04-24T06:08:41;10.30;99.90
36458;DHT22;22480;50.546;12.292;2023-04-24T06:11:08;10.30;99.90
36458;DHT22;22480;50.546;12.292;2023-04-24T06:13:34;10.30;99.90
36458;DHT22;22480;50.546;12.292;2023-04-24T06:16:18;10.50;99.90
36458;DHT22;22480;50.546;12.292;2023-04-24T06:18:50;10.60;99.90
36458;DHT22;22480;50.546;12.292;2023-04-24T06:21:16;10.70;99.90
36458;DHT22;22480;50.546;12.292;2023-04-24T06:23:43;10.70;99.90
36458;DHT22;22480;50.546;12.292;2023-04-24T06:26:09;10.90;99.90
36458;DHT22;22480;50.546;12.292;2023-04-24T06:28:35;10.80;99.90
36458;DHT22;22480;50.546;12.292;2023-04-24T06:31:01;10.80;99.90
36458;DHT22;22480;50.546;12.292;2023-04-24T06:33:26;10.80;99.90
36458;DHT22;22480;50.546;12.292;2023-04-24T06:35:52;10.80;99.90
36458;DHT22;22480;50.546;12.292;2023-04-24T06:38:18;10.80;99.90
36458;DHT22;22480;50.546;12.292;2023-04-24T06:40:44;10.80;99.90
36458;DHT22;22480;50.546;12.292;2023-04-24T06:43:10;10.90;99.90
36458;DHT22;22480;50.546;12.292;2023-04-24T06:45:36;10.90;99.90
36458;DHT22;22480;50.546;12.292;2023-04-24T06:48:02;11.00;99.90
36458;DHT22;22480;50.546;12.292;2023-04-24T06:50:28;11.20;99.90
36458;DHT22;22480;50.546;12.292;2023-04-24T06:52:53;11.30;99.90
36458;DHT22;22480;50.546;12.292;2023-04-24T06:55:19;11.40;99.90
36458;DHT22;22480;50.546;12.292;2023-04-24T06:57:45;11.40;99.90
36458;DHT22;22480;50.546;12.292;2023-04-24T07:00:11;11.40;99.90
36458;DHT22;22480;50.546;12.292;2023-04-24T07:02:37;11.40;99.90
36458;DHT22;22480;50.546;12.292;2023-04-24T07:05:04;11.50;99.90
36458;DHT22;22480;50.546;12.292;2023-04-24T07:07:30;11.60;99.90
36458;DHT22;22480;50.546;12.292;2023-04-24T07:09:57;11.60;99.90
36458;DHT22;22480;50.546;12.292;2023-04-24T07:12:23;11.60;99.90
36458;DHT22;22480;50.546;12.292;2023-04-24T07:14:49;11.60;99.90
36458;DHT22;22480;50.546;12.292;2023-04-24T07:17:15;11.70;99.90
36458;DHT22;22480;50.546;12.292;2023-04-24T07:19:41;11.80;99.90
36458;DHT22;22480;50.546;12.292;2023-04-24T07:22:07;11.90;99.90
36458;DHT22;22480;50.546;12.292;2023-04-24T07:24:33;11.90;99.90
36458;DHT22;22480;50.546;12.292;2023-04-24T07:26:59;11.90;99.90
36458;DHT22;22480;50.546;12.292;2023-04-24T07:29:26;11.80;99.90
36458;DHT22;22480;50.546;12.292;2023-04-24T07:31:52;11.80;99.90
36458;DHT22;22480;50.546;12.292;2023-04-24T07:34:19;11.80;99.90
36458;DHT22;22480;50.546;12.292;2023-04-24T07:36:45;11.70;99.90
36458;DHT22;22480;50.546;12.292;2023-04-24T07:39:11;12.00;99.90
36458;DHT22;22480;50.546;12.292;2023-04-24T07:41:37;12.50;99.90
36458;DHT22;22480;50.546;12.292;2023-04-24T07:44:03;12.90;99.90
36458;DHT22;22480;50.546;12.292;2023-04-24T07:46:30;13.10;99.90
36458;DHT22;22480;50.546;12.292;2023-04-24T07:48:56;13.30;99.90
36458;DHT22;22480;50.546;12.292;2023-04-24T07:51:21;13.30;99.90
36458;DHT22;22480;50.546;12.292;2023-04-24T07:53:47;13.20;99.90
36458;DHT22;22480;50.546;12.292;2023-04-24T07:56:13;13.10;99.90
36458;DHT22;22480;50.546;12.292;2023-04-24T07:58:38;13.10;99.90
36458;DHT22;22480;50.546;12.292;2023-04-24T08:01:04;13.10;99.90
36458;DHT22;22480;50.546;12.292;2023-04-24T08:03:30;13.00;99.90
36458;DHT22;22480;50.546;12.292;2023-04-24T08:05:56;12.80;99.90
36458;DHT22;22480;50.546;12.292;2023-04-24T08:08:22;12.80;99.90
36458;DHT22;22480;50.546;12.292;2023-04-24T08:10:48;13.10;99.90
36458;DHT22;22480;50.546;12.292;2023-04-24T08:13:14;13.20;99.90
36458;DHT22;22480;50.546;12.292;2023-04-24T08:15:40;13.30;99.90
36458;DHT22;22480;50.546;12.292;2023-04-24T08:18:06;13.00;99.90
36458;DHT22;22480;50.546;12.292;2023-04-24T08:20:32;12.80;99.90
36458;DHT22;22480;50.546;12.292;2023-04-24T08:22:57;12.90;99.90
36458;DHT22;22480;50.546;12.292;2023-04-24T08:25:23;12.70;99.90
36458;DHT22;22480;50.546;12.292;2023-04-24T08:27:50;12.60;99.90
36458;DHT22;22480;50.546;12.292;2023-04-24T08:30:17;12.50;99.90
36458;DHT22;22480;50.546;12.292;2023-04-24T08:32:42;12.50;99.90
36458;DHT22;22480;50.546;12.292;2023-04-24T08:35:08;12.40;99.90
36458;DHT22;22480;50.546;12.292;2023-04-24T08:37:35;12.20;99.90
36458;DHT22;22480;50.546;12.292;2023-04-24T08:40:06;11.90;99.90
36458;DHT22;22480;50.546;12.292;2023-04-24T08:42:37;11.70;99.90
36458;DHT22;22480;50.546;12.292;2023-04-24T08:45:03;11.60;99.90
36458;DHT22;22480;50.546;12.292;2023-04-24T08:47:30;11.70;99.90
36458;DHT22;22480;50.546;12.292;2023-04-24T08:49:56;12.10;99.90
36458;DHT22;22480;50.546;12.292;2023-04-24T08:52:22;12.40;99.90
36458;DHT22;22480;50.546;12.292;2023-04-24T08:54:48;12.70;99.90
36458;DHT22;22480;50.546;12.292;2023-04-24T08:57:15;12.80;99.90
36458;DHT22;22480;50.546;12.292;2023-04-24T08:59:42;12.90;99.90
36458;DHT22;22480;50.546;12.292;2023-04-24T09:02:10;13.00;99.90
36458;DHT22;22480;50.546;12.292;2023-04-24T09:04:37;13.10;99.90
36458;DHT22;22480;50.546;12.292;2023-04-24T09:07:03;12.80;99.90
36458;DHT22;22480;50.546;12.292;2023-04-24T09:09:32;12.80;99.90
36458;DHT22;22480;50.546;12.292;2023-04-24T09:11:58;12.80;99.90
36458;DHT22;22480;50.546;12.292;2023-04-24T09:14:24;12.80;99.90
36458;DHT22;22480;50.546;12.292;2023-04-24T09:16:50;13.20;99.90
36458;DHT22;22480;50.546;12.292;2023-04-24T09:19:16;13.60;99.90
36458;DHT22;22480;50.546;12.292;2023-04-24T09:21:45;13.80;99.90
36458;DHT22;22480;50.546;12.292;2023-04-24T09:24:17;13.70;99.90
36458;DHT22;22480;50.546;12.292;2023-04-24T09:26:43;13.60;98.30
36458;DHT22;22480;50.546;12.292;2023-04-24T09:29:17;13.50;99.30
36458;DHT22;22480;50.546;12.292;2023-04-24T09:31:43;13.30;99.90
36458;DHT22;22480;50.546;12.292;2023-04-24T09:34:09;13.80;99.90
36458;DHT22;22480;50.546;12.292;2023-04-24T09:36:41;13.80;97.60
36458;DHT22;22480;50.546;12.292;2023-04-24T09:39:12;14.00;94.90
36458;DHT22;22480;50.546;12.292;2023-04-24T09:41:50;14.00;99.90
36458;DHT22;22480;50.546;12.292;2023-04-24T09:44:18;14.00;99.90
36458;DHT22;22480;50.546;12.292;2023-04-24T09:46:50;14.30;99.90
36458;DHT22;22480;50.546;12.292;2023-04-24T09:49:22;14.20;94.80
36458;DHT22;22480;50.546;12.292;2023-04-24T09:51:48;14.30;97.00
36458;DHT22;22480;50.546;12.292;2023-04-24T09:54:23;14.50;98.90
36458;DHT22;22480;50.546;12.292;2023-04-24T09:56:50;14.60;92.60
36458;DHT22;22480;50.546;12.292;2023-04-24T09:59:19;14.60;90.90
36458;DHT22;22480;50.546;12.292;2023-04-24T10:01:46;14.60;96.80
36458;DHT22;22480;50.546;12.292;2023-04-24T10:04:16;14.80;96.70
36458;DHT22;22480;50.546;12.292;2023-04-24T10:06:43;14.90;90.30
36458;DHT22;22480;50.546;12.292;2023-04-24T10:09:09;15.20;86.70
36458;DHT22;22480;50.546;12.292;2023-04-24T10:11:37;14.90;87.80
36458;DHT22;22480;50.546;12.292;2023-04-24T10:14:06;14.40;82.30
36458;DHT22;22480;50.546;12.292;2023-04-24T10:16:32;14.00;82.40
36458;DHT22;22480;50.546;12.292;2023-04-24T10:18:59;13.90;85.70
36458;DHT22;22480;50.546;12.292;2023-04-24T10:21:26;13.60;91.70
36458;DHT22;22480;50.546;12.292;2023-04-24T10:23:53;13.50;95.90
36458;DHT22;22480;50.546;12.292;2023-04-24T10:26:19;13.40;97.80
36458;DHT22;22480;50.546;12.292;2023-04-24T10:28:46;13.50;99.90
36458;DHT22;22480;50.546;12.292;2023-04-24T10:31:13;13.50;97.90
36458;DHT22;22480;50.546;12.292;2023-04-24T10:33:43;13.50;97.80
36458;DHT22;22480;50.546;12.292;2023-04-24T10:36:11;13.40;96.00
36458;DHT22;22480;50.546;12.292;2023-04-24T10:38:41;13.50;98.70
36458;DHT22;22480;50.546;12.292;2023-04-24T10:41:12;13.90;93.50
36458;DHT22;22480;50.546;12.292;2023-04-24T10:43:45;14.20;97.30
36458;DHT22;22480;50.546;12.292;2023-04-24T10:46:19;14.50;93.00
36458;DHT22;22480;50.546;12.292;2023-04-24T10:48:53;14.30;84.20
36458;DHT22;22480;50.546;12.292;2023-04-24T10:51:22;14.00;81.30
36458;DHT22;22480;50.546;12.292;2023-04-24T10:53:52;14.10;75.20
36458;DHT22;22480;50.546;12.292;2023-04-24T10:56:18;14.40;79.50
36458;DHT22;22480;50.546;12.292;2023-04-24T10:58:50;14.60;75.20
36458;DHT22;22480;50.546;12.292;2023-04-24T11:01:28;15.20;76.30
36458;DHT22;22480;50.546;12.292;2023-04-24T11:03:59;15.60;68.80
36458;DHT22;22480;50.546;12.292;2023-04-24T11:06:33;15.50;71.40
36458;DHT22;22480;50.546;12.292;2023-04-24T11:09:08;15.30;70.60
36458;DHT22;22480;50.546;12.292;2023-04-24T11:11:38;15.60;70.60
36458;DHT22;22480;50.546;12.292;2023-04-24T11:14:10;15.20;71.40
36458;DHT22;22480;50.546;12.292;2023-04-24T11:16:39;14.70;72.50
36458;DHT22;22480;50.546;12.292;2023-04-24T11:19:08;14.80;71.30
36458;DHT22;22480;50.546;12.292;2023-04-24T11:21:41;14.30;74.00
36458;DHT22;22480;50.546;12.292;2023-04-24T11:24:26;13.90;73.70
36458;DHT22;22480;50.546;12.292;2023-04-24T11:27:05;14.20;76.70
36458;DHT22;22480;50.546;12.292;2023-04-24T11:34:59;13.90;79.70
36458;DHT22;22480;50.546;12.292;2023-04-24T11:37:37;14.10;78.50
36458;DHT22;22480;50.546;12.292;2023-04-24T11:40:06;14.20;74.60
36458;DHT22;22480;50.546;12.292;2023-04-24T11:42:42;14.00;74.60
36458;DHT22;22480;50.546;12.292;2023-04-24T11:45:12;13.50;77.20
36458;DHT22;22480;50.546;12.292;2023-04-24T11:47:39;13.30;90.10
36458;DHT22;22480;50.546;12.292;2023-04-24T11:50:10;13.80;87.80
36458;DHT22;22480;50.546;12.292;2023-04-24T11:52:38;14.90;76.60
36458;DHT22;22480;50.546;12.292;2023-04-24T11:55:06;15.50;72.10
36458;DHT22;22480;50.546;12.292;2023-04-24T11:57:32;15.20;69.80
36458;DHT22;22480;50.546;12.292;2023-04-24T12:00:03;15.40;71.10
36458;DHT22;22480;50.546;12.292;2023-04-24T12:02:42;15.50;72.90
36458;DHT22;22480;50.546;12.292;2023-04-24T12:05:08;15.40;71.60
36458;DHT22;22480;50.546;12.292;2023-04-24T12:07:41;15.20;74.10
36458;DHT22;22480;50.546;12.292;2023-04-24T12:10:10;14.80;71.00
36458;DHT22;22480;50.546;12.292;2023-04-24T12:12:36;14.20;78.00
36458;DHT22;22480;50.546;12.292;2023-04-24T12:15:07;13.90;86.70
36458;DHT22;22480;50.546;12.292;2023-04-24T12:17:34;13.60;87.20
36458;DHT22;22480;50.546;12.292;2023-04-24T12:20:04;13.60;87.70
36458;DHT22;22480;50.546;12.292;2023-04-24T12:22:44;13.60;90.50
36458;DHT22;22480;50.546;12.292;2023-04-24T12:25:11;14.80;85.80
36458;DHT22;22480;50.546;12.292;2023-04-24T12:27:37;15.60;76.90
36458;DHT22;22480;50.546;12.292;2023-04-24T12:30:05;15.70;74.30
36458;DHT22;22480;50.546;12.292;2023-04-24T12:32:31;15.50;76.90
36458;DHT22;22480;50.546;12.292;2023-04-24T12:34:58;15.80;74.80
36458;DHT22;22480;50.546;12.292;2023-04-24T12:37:32;15.80;72.20
36458;DHT22;22480;50.546;12.292;2023-04-24T12:40:03;15.50;73.90
36458;DHT22;22480;50.546;12.292;2023-04-24T12:42:30;15.10;73.00
36458;DHT22;22480;50.546;12.292;2023-04-24T12:45:06;14.90;74.30
36458;DHT22;22480;50.546;12.292;2023-04-24T12:47:33;14.70;81.90
36458;DHT22;22480;50.546;12.292;2023-04-24T12:49:59;15.40;73.10
36458;DHT22;22480;50.546;12.292;2023-04-24T12:52:27;15.90;69.40
36458;DHT22;22480;50.546;12.292;2023-04-24T12:54:55;15.30;72.10
36458;DHT22;22480;50.546;12.292;2023-04-24T12:57:21;14.80;75.60
36458;DHT22;22480;50.546;12.292;2023-04-24T12:59:47;14.50;78.90
36458;DHT22;22480;50.546;12.292;2023-04-24T13:02:13;14.80;79.40
36458;DHT22;22480;50.546;12.292;2023-04-24T13:04:39;15.20;74.40
36458;DHT22;22480;50.546;12.292;2023-04-24T13:07:05;15.30;74.10
36458;DHT22;22480;50.546;12.292;2023-04-24T13:09:31;14.90;74.00
36458;DHT22;22480;50.546;12.292;2023-04-24T13:11:57;14.10;79.50
36458;DHT22;22480;50.546;12.292;2023-04-24T13:14:23;13.50;85.40
36458;DHT22;22480;50.546;12.292;2023-04-24T13:16:49;13.10;90.60
36458;DHT22;22480;50.546;12.292;2023-04-24T13:19:15;13.00;92.50
36458;DHT22;22480;50.546;12.292;2023-04-24T13:21:40;13.00;90.80
36458;DHT22;22480;50.546;12.292;2023-04-24T13:24:06;13.00;92.50
36458;DHT22;22480;50.546;12.292;2023-04-24T13:26:33;13.20;94.30
36458;DHT22;22480;50.546;12.292;2023-04-24T13:28:59;13.50;93.40
36458;DHT22;22480;50.546;12.292;2023-04-24T13:31:25;14.10;87.00
36458;DHT22;22480;50.546;12.292;2023-04-24T13:33:51;14.80;80.10
36458;DHT22;22480;50.546;12.292;2023-04-24T13:36:17;14.80;77.50
36458;DHT22;22480;50.546;12.292;2023-04-24T13:38:44;14.80;78.30
36458;DHT22;22480;50.546;12.292;2023-04-24T13:41:10;14.70;80.90
36458;DHT22;22480;50.546;12.292;2023-04-24T13:43:36;14.50;83.10
36458;DHT22;22480;50.546;12.292;2023-04-24T13:46:01;14.50;88.00
36458;DHT22;22480;50.546;12.292;2023-04-24T13:48:29;14.40;79.90
36458;DHT22;22480;50.546;12.292;2023-04-24T13:50:55;14.10;86.50
36458;DHT22;22480;50.546;12.292;2023-04-24T13:53:20;14.00;90.20
36458;DHT22;22480;50.546;12.292;2023-04-24T13:55:46;13.80;86.10
36458;DHT22;22480;50.546;12.292;2023-04-24T13:58:12;13.70;85.20
36458;DHT22;22480;50.546;12.292;2023-04-24T14:00:37;14.00;86.70
36458;DHT22;22480;50.546;12.292;2023-04-24T14:03:03;14.90;80.20
36458;DHT22;22480;50.546;12.292;2023-04-24T14:05:29;15.00;77.10
36458;DHT22;22480;50.546;12.292;2023-04-24T14:07:55;14.90;76.80
36458;DHT22;22480;50.546;12.292;2023-04-24T14:10:21;15.20;74.70
36458;DHT22;22480;50.546;12.292;2023-04-24T14:12:46;15.50;68.70
36458;DHT22;22480;50.546;12.292;2023-04-24T14:15:12;15.70;69.80
36458;DHT22;22480;50.546;12.292;2023-04-24T14:17:39;15.50;68.00
36458;DHT22;22480;50.546;12.292;2023-04-24T14:20:05;15.20;70.50
36458;DHT22;22480;50.546;12.292;2023-04-24T14:22:32;14.40;71.80
36458;DHT22;22480;50.546;12.292;2023-04-24T14:24:58;13.90;78.30
36458;DHT22;22480;50.546;12.292;2023-04-24T14:27:24;13.50;80.20
36458;DHT22;22480;50.546;12.292;2023-04-24T14:29:50;13.00;84.30
36458;DHT22;22480;50.546;12.292;2023-04-24T14:32:16;12.80;84.80
36458;DHT22;22480;50.546;12.292;2023-04-24T14:34:41;12.60;88.30
36458;DHT22;22480;50.546;12.292;2023-04-24T14:37:07;12.40;90.60
36458;DHT22;22480;50.546;12.292;2023-04-24T14:39:33;12.30;92.90
36458;DHT22;22480;50.546;12.292;2023-04-24T14:41:59;12.40;93.70
36458;DHT22;22480;50.546;12.292;2023-04-24T14:44:25;12.40;94.80
36458;DHT22;22480;50.546;12.292;2023-04-24T14:46:51;12.50;92.70
36458;DHT22;22480;50.546;12.292;2023-04-24T14:49:17;12.60;91.80
36458;DHT22;22480;50.546;12.292;2023-04-24T14:51:42;12.60;91.00
36458;DHT22;22480;50.546;12.292;2023-04-24T14:54:08;12.70;91.50
36458;DHT22;22480;50.546;12.292;2023-04-24T14:56:34;12.90;88.90
36458;DHT22;22480;50.546;12.292;2023-04-24T14:59:01;13.10;88.00
36458;DHT22;22480;50.546;12.292;2023-04-24T15:01:26;12.90;90.90
36458;DHT22;22480;50.546;12.292;2023-04-24T15:03:52;12.90;91.10
36458;DHT22;22480;50.546;12.292;2023-04-24T15:06:18;12.90;90.50
36458;DHT22;22480;50.546;12.292;2023-04-24T15:08:44;12.70;89.00
36458;DHT22;22480;50.546;12.292;2023-04-24T15:11:10;12.50;90.60
36458;DHT22;22480;50.546;12.292;2023-04-24T15:13:36;12.20;91.80
36458;DHT22;22480;50.546;12.292;2023-04-24T15:16:01;11.90;96.10
36458;DHT22;22480;50.546;12.292;2023-04-24T15:18:27;11.70;99.90
36458;DHT22;22480;50.546;12.292;2023-04-24T15:20:55;11.70;99.90
36458;DHT22;22480;50.546;12.292;2023-04-24T15:23:21;11.60;99.90
36458;DHT22;22480;50.546;12.292;2023-04-24T15:25:47;11.60;99.90
36458;DHT22;22480;50.546;12.292;2023-04-24T15:28:12;11.40;99.90
36458;DHT22;22480;50.546;12.292;2023-04-24T15:30:39;11.50;99.90